Time;durP1;ratioP1;P1;durP2;ratioP2;P2;SDS_P1;SDS_P2;PMS_P1;PMS_P2;Temp;Humidity;BMP_temperature;BMP_pressure;BME280_temperature;BME280_humidity;BME280_pressure;Samples;Min_cycle;Max_cycle;Signal;HPM_P1;HPM_P2
2024/03/10 00:01:18;;;;;;;7.85;4.32;;;;;;;-145.63;31.77;39067.28;5052053;28;20057;-65
2024/03/10 00:03:50;;;;;;;6.20;3.83;;;;;;;-145.63;31.39;39098.56;5032699;28;20041;-66
2024/03/10 00:06:18;;;;;;;;;;;;;;;-145.63;32.53;39110.28;5037393;28;20469;-66
2024/03/10 00:08:46;;;;;;;4.20;3.03;;;;;;;-145.63;30.88;39090.75;5052819;28;20436;-67
2024/03/10 00:11:30;;;;;;;5.63;3.53;;;;;;;-145.63;31.47;39102.47;5043457;28;20032;-66
2024/03/10 00:14:09;;;;;;;6.55;3.58;;;;;;;-145.63;31.33;39098.56;5035657;28;20034;-67
2024/03/10 00:16:50;;;;;;;5.25;3.13;;;;;;;-145.63;31.75;39069.22;5036396;28;20056;-66
2024/03/10 00:19:34;;;;;;;4.82;3.15;;;;;;;-145.63;31.67;39039.88;5036723;28;20039;-67
2024/03/10 00:22:33;;;;;;;4.65;3.38;;;;;;;-145.63;32.10;39065.31;5037180;28;20033;-66
2024/03/10 00:25:23;;;;;;;6.95;3.25;;;;;;;-145.63;32.51;39096.59;5054400;28;20021;-67
2024/03/10 00:28:04;;;;;;;7.72;4.25;;;;;;;-145.63;32.52;39102.47;5030839;28;20102;-67
2024/03/10 00:30:33;;;;;;;9.18;3.55;;;;;;;-145.63;32.64;39084.88;5050406;28;20033;-67
2024/03/10 00:32:59;;;;;;;5.07;3.50;;;;;;;-145.63;32.68;39096.59;5055667;28;20040;-66
2024/03/10 00:38:27;;;;;;;7.85;3.83;;;;;;;-145.63;31.92;39080.97;5056424;28;20037;-65
2024/03/10 00:41:11;;;;;;;8.23;4.70;;;;;;;-145.63;32.40;39090.75;5050178;28;20112;-66
2024/03/10 00:43:46;;;;;;;6.57;4.78;;;;;;;-145.63;31.91;39071.19;5036210;28;20108;-66
2024/03/10 00:46:31;;;;;;;9.52;5.00;;;;;;;-145.63;32.77;39088.78;5017108;28;20034;-66
2024/03/10 00:49:02;;;;;;;6.28;4.25;;;;;;;-145.63;32.00;39079.00;5036458;28;20427;-65
2024/03/10 00:51:46;;;;;;;7.35;4.80;;;;;;;-145.63;32.09;39079.00;5034831;28;20090;-64
2024/03/10 00:54:17;;;;;;;10.40;6.72;;;;;;;-145.63;32.76;39063.34;5036478;28;20029;-65
2024/03/10 00:56:48;;;;;;;10.95;7.60;;;;;;;-145.63;33.28;39094.66;5036025;28;20021;-64
2024/03/10 00:59:17;;;;;;;8.68;6.50;;;;;;;-145.63;32.89;39100.50;5036141;28;20029;-64
2024/03/10 01:01:51;;;;;;;8.77;4.95;;;;;;;-145.63;31.78;39082.91;5042747;28;20040;-65
2024/03/10 01:04:20;;;;;;;10.35;4.68;;;;;;;-145.63;33.11;39102.47;5053080;28;20029;-64
2024/03/10 01:06:51;;;;;;;7.07;4.63;;;;;;;-145.63;32.27;39102.47;5035592;28;20022;-65
2024/03/10 01:09:19;;;;;;;7.75;4.90;;;;;;;-145.63;32.54;39096.59;5035932;28;20040;-63
2024/03/10 01:12:05;;;;;;;7.38;4.50;;;;;;;-145.63;33.03;39094.66;5035697;28;20078;-64
2024/03/10 01:14:46;;;;;;;6.57;3.78;;;;;;;-145.63;33.53;39061.41;5036055;28;20504;-64
2024/03/10 01:17:46;;;;;;;9.40;4.70;;;;;;;-145.63;33.70;39065.31;5036401;28;20484;-65
2024/03/10 01:23:42;;;;;;;8.30;4.95;;;;;;;-145.63;32.51;39082.91;5035196;28;20036;-64
2024/03/10 01:26:10;;;;;;;8.02;4.63;;;;;;;-145.63;33.19;39071.19;5035094;28;20048;-64
2024/03/10 01:28:42;;;;;;;6.18;3.47;;;;;;;-145.63;33.17;39080.97;5033983;28;20067;-63
2024/03/10 01:31:22;;;;;;;8.82;4.28;;;;;;;-145.63;32.34;39084.88;5035457;28;20030;-63
2024/03/10 01:34:22;;;;;;;6.78;3.85;;;;;;;-145.63;32.57;39080.97;5020039;28;20930;-64
2024/03/10 01:36:54;;;;;;;7.22;3.70;;;;;;;-145.63;31.43;39045.75;5014193;28;20053;-63
2024/03/10 01:39:27;;;;;;;6.90;4.25;;;;;;;-145.63;31.93;39051.63;5031910;28;20508;-65
2024/03/10 01:41:58;;;;;;;7.30;4.65;;;;;;;-145.63;32.39;39069.22;5034163;28;20087;-65
2024/03/10 01:44:45;;;;;;;6.72;4.28;;;;;;;-145.63;32.79;39096.59;5033996;28;20033;-65
2024/03/10 01:47:48;;;;;;;6.28;4.40;;;;;;;-145.63;32.51;39065.31;5035364;28;20045;-67
2024/03/10 01:50:23;;;;;;;12.07;5.40;;;;;;;-145.63;32.64;39065.31;5035255;28;20022;-65
2024/03/10 01:53:09;;;;;;;7.97;5.22;;;;;;;-145.63;32.42;39069.22;5033760;28;20025;-66
2024/03/10 01:56:05;;;;;;;9.18;4.95;;;;;;;-145.63;32.80;39059.44;5037796;28;20021;-65
2024/03/10 01:58:44;;;;;;;6.93;4.43;;;;;;;-145.63;32.28;39088.78;5051187;28;20112;-65
2024/03/10 02:01:28;;;;;;;6.35;4.65;;;;;;;-145.63;32.21;39065.31;5034988;28;20390;-66
2024/03/10 02:04:08;;;;;;;7.93;4.65;;;;;;;-145.63;33.16;39133.75;5050781;28;20041;-66
2024/03/10 02:06:42;;;;;;;6.60;4.28;;;;;;;-145.63;31.89;39053.59;5053420;28;20045;-66
2024/03/10 02:12:01;;;;;;;7.55;3.88;;;;;;;-145.63;32.67;39104.44;5049306;28;20086;-66
2024/03/10 02:15:08;;;;;;;9.75;4.15;;;;;;;-145.63;31.28;39063.34;5044537;28;20029;-65
2024/03/10 02:17:44;;;;;;;7.78;3.63;;;;;;;-145.63;31.65;39079.00;5032635;28;20028;-65
2024/03/10 02:20:57;;;;;;;5.10;3.60;;;;;;;-145.63;32.63;39086.81;5034091;28;20071;-65
2024/03/10 02:23:40;;;;;;;10.05;3.60;;;;;;;-145.63;33.28;39084.88;5034056;28;20037;-67
2024/03/10 02:26:15;;;;;;;8.65;3.65;;;;;;;-145.63;32.62;39073.13;5034770;28;20057;-66
2024/03/10 02:48:33;;;;;;;4.85;3.33;;;;;;;-145.63;33.32;39075.09;5051232;28;20021;-65
2024/03/10 02:50:58;;;;;;;8.50;4.32;;;;;;;-145.63;34.83;39063.34;5039539;28;20390;-66
2024/03/10 02:53:24;;;;;;;11.45;3.90;;;;;;;-145.63;33.58;39086.81;5034066;28;20029;-66
2024/03/10 02:56:03;;;;;;;5.95;3.72;;;;;;;-145.63;32.96;39059.44;5033736;28;20033;-66
2024/03/10 02:58:43;;;;;;;7.60;4.13;;;;;;;-145.63;34.00;39073.13;5033922;28;20032;-64
2024/03/10 03:01:11;;;;;;;6.90;3.95;;;;;;;-145.63;34.52;39102.47;5033716;28;20091;-66
2024/03/10 03:03:40;;;;;;;10.32;3.65;;;;;;;-145.63;34.23;39067.28;5033723;28;20464;-66
2024/03/10 03:06:10;;;;;;;10.43;5.72;;;;;;;-145.63;35.00;39069.22;5034085;28;20025;-64
2024/03/10 03:08:50;;;;;;;7.10;3.80;;;;;;;-145.63;33.37;39088.78;5033356;28;20025;-65
2024/03/10 03:11:28;;;;;;;8.85;3.70;;;;;;;-145.63;34.28;39067.28;5031954;28;20456;-64
2024/03/10 03:14:01;;;;;;;6.00;3.60;;;;;;;-145.63;33.10;39096.59;5031679;28;20041;-63
2024/03/10 03:16:46;;;;;;;10.48;4.10;;;;;;;-145.63;34.15;39061.41;5038174;28;20373;-64
2024/03/10 03:19:36;;;;;;;11.63;4.53;;;;;;;-145.63;33.51;39051.63;5051809;28;20043;-65
2024/03/10 03:22:02;;;;;;;;;;;;;;;-145.63;34.19;39082.91;5053856;28;20393;-64
2024/03/10 03:25:14;;;;;;;5.90;3.75;;;;;;;-145.63;33.45;39065.31;5053112;28;19908;-63
2024/03/10 03:28:01;;;;;;;11.73;4.30;;;;;;;-145.63;33.72;39098.56;5047370;28;20045;-64
2024/03/10 03:30:45;;;;;;;10.88;4.40;;;;;;;-145.63;34.15;39045.75;5065497;28;20132;-64
2024/03/10 03:33:41;;;;;;;7.63;4.50;;;;;;;-145.63;35.10;39035.97;5033336;28;20036;-64
2024/03/10 03:36:22;;;;;;;7.40;4.57;;;;;;;-145.63;34.23;39055.53;5033185;28;20068;-65
2024/03/10 03:38:58;;;;;;;8.82;4.28;;;;;;;-145.63;34.15;39063.34;5013832;28;20112;-65
2024/03/10 03:41:45;;;;;;;8.55;4.15;;;;;;;-145.63;33.79;39037.94;5031800;28;20025;-65
2024/03/10 03:44:20;;;;;;;9.45;4.45;;;;;;;-145.63;34.19;39020.34;5059886;28;20033;-66
2024/03/10 03:47:09;;;;;;;8.60;4.60;;;;;;;-145.63;34.51;39039.88;5032844;28;20060;-65
2024/03/10 03:50:22;;;;;;;6.18;4.10;;;;;;;-145.63;34.31;39055.53;5034354;28;20025;-66
2024/03/10 03:53:27;;;;;;;10.40;4.40;;;;;;;-145.63;34.48;39028.16;5046099;28;20036;-67
2024/03/10 03:56:32;;;;;;;13.25;5.50;;;;;;;-145.63;34.19;39043.81;5035939;28;20060;-65
2024/03/10 03:59:04;;;;;;;10.38;5.40;;;;;;;-145.63;34.82;39039.88;5032596;28;20029;-65
2024/03/10 04:01:42;;;;;;;10.40;6.03;;;;;;;-145.63;34.74;39106.38;5031597;28;20116;-64
2024/03/10 04:04:10;;;;;;;12.43;5.00;;;;;;;-145.63;34.88;39032.06;5015080;28;20037;-64
2024/03/10 04:06:48;;;;;;;11.68;5.13;;;;;;;-145.63;34.68;39020.34;5031611;28;20339;-65
2024/03/10 04:09:14;;;;;;;8.88;4.22;;;;;;;-145.63;35.40;39032.06;5032907;28;20040;-64
2024/03/10 04:11:40;;;;;;;8.68;4.88;;;;;;;-145.63;34.08;39032.06;5033085;28;20029;-64
2024/03/10 04:14:07;;;;;;;10.13;4.43;;;;;;;-145.63;35.08;39028.16;5032076;28;20052;-66
2024/03/10 04:16:35;;;;;;;7.43;4.10;;;;;;;-145.63;35.14;39037.94;5032767;28;20450;-65
2024/03/10 04:19:26;;;;;;;10.07;3.85;;;;;;;-145.63;34.68;38959.72;5032670;28;20106;-65
2024/03/10 04:21:51;;;;;;;9.18;4.07;;;;;;;-145.63;34.83;38969.50;5032487;28;20116;-64
2024/03/10 04:24:33;;;;;;;6.35;3.83;;;;;;;-145.63;35.40;38949.94;5031662;28;20519;-66
2024/03/10 04:26:58;;;;;;;9.60;4.55;;;;;;;-145.63;35.02;38965.56;5032828;28;20041;-64
2024/03/10 04:32:23;;;;;;;7.03;4.30;;;;;;;-145.63;35.19;38946.03;5047770;28;20131;-65
2024/03/10 04:34:48;;;;;;;7.65;4.20;;;;;;;-145.63;35.28;38981.22;5039666;28;20402;-64
2024/03/10 04:37:28;;;;;;;7.68;4.20;;;;;;;-145.63;35.23;38977.31;5033078;28;20037;-66
2024/03/10 04:40:34;;;;;;;9.00;4.25;;;;;;;-145.63;36.08;38977.31;5040714;28;20060;-65
2024/03/10 04:43:05;;;;;;;8.43;4.03;;;;;;;-145.63;35.31;38983.19;5046736;28;20029;-66
2024/03/10 04:45:33;;;;;;;8.35;4.30;;;;;;;-145.63;35.74;38957.75;5031399;28;20034;-65
2024/03/10 04:48:08;;;;;;;8.07;4.30;;;;;;;-145.63;35.96;38961.66;5031313;28;20033;-67
2024/03/10 04:50:36;;;;;;;9.45;4.53;;;;;;;-145.63;35.76;38959.72;5040694;28;20358;-65
2024/03/10 04:53:30;;;;;;;6.45;4.05;;;;;;;-145.63;35.56;38985.13;5046657;28;20032;-66
2024/03/10 04:55:58;;;;;;;8.55;4.43;;;;;;;-145.63;35.49;38955.81;5039301;28;20042;-65
2024/03/10 04:58:30;;;;;;;8.65;3.92;;;;;;;-145.63;34.70;38985.13;5033371;28;20029;-66
2024/03/10 05:00:56;;;;;;;7.03;4.05;;;;;;;-145.63;35.73;38981.22;5041210;28;20148;-64
2024/03/10 05:06:18;;;;;;;6.97;3.90;;;;;;;-145.63;35.13;38957.75;5055767;28;20078;-65
2024/03/10 05:08:46;;;;;;;9.13;4.22;;;;;;;-145.63;35.45;38959.72;5055597;28;20021;-64
2024/03/10 05:11:19;;;;;;;;;;;;;;;-145.63;34.85;38953.84;5041332;28;20091;-64
2024/03/10 05:14:08;;;;;;;5.70;3.42;;;;;;;-145.63;35.36;38953.84;5037219;28;20386;-65
2024/03/10 05:16:46;;;;;;;9.85;4.70;;;;;;;-145.63;35.13;38955.81;5039346;28;20116;-66
2024/03/10 05:19:32;;;;;;;6.68;3.90;;;;;;;-145.63;34.28;38959.72;5036206;28;20040;-64
2024/03/10 05:22:12;;;;;;;11.02;4.15;;;;;;;-145.63;34.87;38971.44;5036286;28;20029;-64
2024/03/10 05:24:42;;;;;;;6.72;3.80;;;;;;;-145.63;34.28;38977.31;5035752;28;20042;-64
2024/03/10 05:27:37;;;;;;;6.65;4.22;;;;;;;-145.63;34.67;38981.22;5034560;28;20381;-65
2024/03/10 05:30:04;;;;;;;5.72;3.92;;;;;;;-145.63;33.79;38977.31;5031454;28;20109;-65
2024/03/10 05:32:41;;;;;;;5.90;3.80;;;;;;;-145.63;33.86;38981.22;5034228;28;20064;-62
2024/03/10 05:35:16;;;;;;;5.47;3.55;;;;;;;-145.63;34.26;38969.50;5035169;28;20483;-64
2024/03/10 05:40:35;;;;;;;5.90;3.42;;;;;;;-145.63;33.96;38969.50;5035044;28;20033;-63
2024/03/10 05:43:22;;;;;;;9.75;4.35;;;;;;;-145.63;33.70;38953.84;5017534;28;20025;-63
2024/03/10 05:46:07;;;;;;;7.22;4.07;;;;;;;-145.63;33.72;38971.44;5034939;28;20029;-63
2024/03/10 05:48:43;;;;;;;5.93;3.80;;;;;;;-145.63;32.69;38961.66;5033632;28;20033;-62
2024/03/10 05:51:18;;;;;;;9.50;5.13;;;;;;;-145.63;33.65;38985.13;5034742;28;20049;-63
2024/03/10 05:54:23;;;;;;;10.25;3.92;;;;;;;-145.63;33.26;38975.34;5034635;28;20036;-63
2024/03/10 05:57:01;;;;;;;7.95;3.85;;;;;;;-145.63;33.90;38987.09;5014779;28;20052;-67
2024/03/10 05:59:30;;;;;;;6.50;4.10;;;;;;;-145.63;32.75;38989.03;5032362;28;20362;-67
2024/03/10 06:02:16;;;;;;;9.50;4.35;;;;;;;-145.63;32.64;38961.66;5046132;28;20545;-63
2024/03/10 06:04:49;;;;;;;7.80;3.60;;;;;;;-145.63;32.96;38961.66;5043182;28;20051;-64
2024/03/10 06:07:35;;;;;;;12.07;4.03;;;;;;;-145.63;33.38;38932.34;5034357;28;20040;-63
2024/03/10 06:10:13;;;;;;;7.43;4.35;;;;;;;-145.63;33.21;38994.91;5034568;28;20032;-64
2024/03/10 06:12:52;;;;;;;9.57;4.20;;;;;;;-145.63;32.28;38965.56;5034383;28;20026;-64
2024/03/10 06:15:39;;;;;;;8.82;4.18;;;;;;;-145.63;32.15;38989.03;5034632;28;20041;-63
2024/03/10 06:28:11;;;;;;;6.18;4.03;;;;;;;-145.63;31.15;38987.09;5034153;28;20094;-65
2024/03/10 06:30:48;;;;;;;4.88;3.42;;;;;;;-145.63;32.62;38985.13;5033900;28;20033;-65
2024/03/10 06:33:28;;;;;;;5.15;3.38;;;;;;;-145.63;31.23;38987.09;5034396;28;20033;-64
2024/03/10 06:36:22;;;;;;;4.18;3.10;;;;;;;-145.63;31.38;38985.13;5014131;28;20139;-64
2024/03/10 06:38:57;;;;;;;8.27;4.07;;;;;;;-145.63;32.73;38989.03;5032534;28;20087;-63
2024/03/10 06:41:41;;;;;;;10.00;5.35;;;;;;;-145.63;31.17;38926.47;5032488;28;20025;-63
2024/03/10 06:44:06;;;;;;;7.25;3.55;;;;;;;-145.63;30.76;38969.50;5034026;28;20065;-63
2024/03/10 06:46:38;;;;;;;7.63;3.45;;;;;;;-145.63;30.54;38949.94;5033848;28;20418;-65
2024/03/10 06:49:22;;;;;;;5.13;3.40;;;;;;;-145.63;30.16;38887.34;5033954;28;20033;-64
2024/03/10 06:51:54;;;;;;;7.10;3.22;;;;;;;-145.63;30.54;38957.75;5033577;28;20036;-65
2024/03/10 06:54:41;;;;;;;11.60;7.22;;;;;;;-145.63;30.47;39034.03;5033933;28;20025;-65
2024/03/10 06:57:12;;;;;;;4.53;3.00;;;;;;;-145.63;28.80;38903.00;5029514;28;20379;-65
2024/03/10 06:59:56;;;;;;;;;;;;;;;-145.63;27.83;38946.03;5032054;28;20030;-64
2024/03/10 07:02:28;;;;;;;3.47;2.78;;;;;;;-145.63;27.18;39022.28;5033463;28;19909;-65
2024/03/10 07:08:10;;;;;;;5.65;2.70;;;;;;;-145.63;26.16;38920.59;5039688;28;20038;-65
2024/03/10 07:11:00;;;;;;;5.63;3.00;;;;;;;-145.63;25.43;38938.19;5033906;28;20040;-65
2024/03/10 07:13:43;;;;;;;6.05;2.35;;;;;;;-145.63;25.66;38979.28;5033236;28;20033;-65
2024/03/10 07:16:17;;;;;;;3.10;2.58;;;;;;;-145.63;25.95;38975.34;5033008;28;20056;-65
2024/03/10 07:18:55;;;;;;;5.47;3.30;;;;;;;-145.63;24.94;38942.13;5033652;28;20044;-67
2024/03/10 07:21:29;;;;;;;5.22;2.75;;;;;;;-145.63;25.38;38971.44;5032008;28;20034;-66
2024/03/10 07:23:55;;;;;;;;;;;;;;;-145.63;24.60;39022.28;5014260;28;20029;-66
2024/03/10 07:26:29;;;;;;;4.78;2.58;;;;;;;-145.63;24.16;38985.13;5029110;28;20373;-65
2024/03/10 07:29:00;;;;;;;6.80;3.30;;;;;;;-145.63;24.58;38979.28;5033307;28;20133;-66
2024/03/10 07:31:44;;;;;;;8.13;2.47;;;;;;;-145.63;24.50;39012.50;5033528;28;20053;-66
2024/03/10 07:34:44;;;;;;;4.57;2.72;;;;;;;-145.63;25.07;39084.88;5033478;28;20057;-64
2024/03/10 07:37:25;;;;;;;4.50;2.67;;;;;;;-145.63;24.25;39077.06;5038932;28;20041;-66
2024/03/10 07:40:15;;;;;;;4.13;2.77;;;;;;;-145.63;24.45;39049.66;5050465;28;20123;-65
2024/03/10 07:45:51;;;;;;;5.75;2.90;;;;;;;-145.63;23.08;39035.97;5033235;28;20054;-66
2024/03/10 07:48:35;;;;;;;5.65;2.60;;;;;;;-145.63;23.09;39057.50;5014255;28;20124;-65
2024/03/10 07:51:09;;;;;;;9.45;2.88;;;;;;;-145.63;24.47;39000.78;5033142;28;20047;-66
2024/03/10 07:53:39;;;;;;;4.20;2.72;;;;;;;-145.63;24.89;39053.59;5032997;28;20026;-65
2024/03/10 07:56:34;;;;;;;10.68;2.58;;;;;;;-145.63;23.84;39049.66;5033292;28;20052;-65
2024/03/10 07:59:07;;;;;;;4.03;2.42;;;;;;;-145.63;23.98;39055.53;5033077;28;20347;-66
2024/03/10 08:01:50;;;;;;;7.00;2.88;;;;;;;-145.63;23.62;39047.72;5032934;28;20029;-65
2024/03/10 08:04:19;;;;;;;6.90;2.67;;;;;;;-145.63;23.07;39071.19;5032005;28;20109;-65
2024/03/10 08:06:49;;;;;;;8.13;2.97;;;;;;;-145.63;23.55;39110.28;5032893;28;20034;-66
2024/03/10 08:09:23;;;;;;;4.32;2.58;;;;;;;-145.63;25.24;39098.56;5032982;28;20467;-66
2024/03/10 08:11:52;;;;;;;4.70;2.70;;;;;;;-145.63;24.29;39129.84;5031350;28;20030;-63
2024/03/10 08:14:21;;;;;;;4.90;2.67;;;;;;;-145.63;24.33;39106.38;5047691;28;20040;-66
2024/03/10 08:16:50;;;;;;;4.50;2.95;;;;;;;-145.63;23.94;39084.88;5042062;28;20036;-65
2024/03/10 08:19:15;;;;;;;6.65;2.97;;;;;;;-145.63;24.44;39094.66;5032179;28;20451;-65
2024/03/10 08:21:41;;;;;;;9.82;3.40;;;;;;;-145.63;23.67;39116.16;5031219;28;20116;-65
2024/03/10 08:24:21;;;;;;;5.15;2.90;;;;;;;-145.63;23.44;39067.28;5033275;28;20075;-66
2024/03/10 08:26:58;;;;;;;6.50;2.97;;;;;;;-145.63;24.13;39063.34;5032843;28;20041;-66
2024/03/10 08:29:42;;;;;;;2.75;2.50;;;;;;;-145.63;22.76;39071.19;5033178;28;20037;-64
2024/03/10 08:32:26;;;;;;;5.38;2.63;;;;;;;-145.63;23.37;39043.81;5032970;28;20034;-65
2024/03/10 08:35:01;;;;;;;6.32;2.63;;;;;;;-145.63;24.52;39088.78;5033406;28;20045;-64
2024/03/10 08:37:38;;;;;;;4.10;2.42;;;;;;;-145.63;23.76;39079.00;5036277;28;20033;-66
2024/03/10 08:40:21;;;;;;;4.03;2.92;;;;;;;-145.63;25.29;39098.56;5036565;28;20033;-64
2024/03/10 08:43:05;;;;;;;;;;;;;;;-145.63;24.23;39094.66;5036787;28;20029;-65
2024/03/10 08:46:07;;;;;;;3.80;2.17;;;;;;;-145.63;24.66;39090.75;5038640;28;19920;-64
2024/03/10 08:48:35;;;;;;;3.83;2.05;;;;;;;-145.63;24.19;39092.69;5055514;28;20116;-66
2024/03/10 08:51:05;;;;;;;3.53;1.77;;;;;;;-145.63;24.24;39096.59;5028434;28;20040;-64
2024/03/10 08:53:40;;;;;;;6.68;1.95;;;;;;;-145.63;24.66;39114.22;5034589;28;20026;-66
2024/03/10 08:56:09;;;;;;;2.97;1.90;;;;;;;-145.63;24.98;39133.75;5034548;28;20048;-65
2024/03/10 09:02:18;;;;;;;2.40;1.60;;;;;;;-145.63;24.91;39043.81;5036085;28;20033;-65
2024/03/10 09:05:12;;;;;;;1.92;1.30;;;;;;;-145.63;24.85;39051.63;5035764;28;20072;-64
2024/03/10 09:07:49;;;;;;;2.40;1.30;;;;;;;-145.63;24.34;39039.88;5036099;28;20112;-65
2024/03/10 09:10:27;;;;;;;1.90;1.40;;;;;;;-145.63;25.37;39084.88;5035828;28;20128;-63
2024/03/10 09:12:55;;;;;;;1.73;1.52;;;;;;;-145.63;23.72;39026.19;5035483;28;20565;-64
2024/03/10 09:16:01;;;;;;;3.85;1.73;;;;;;;-145.63;25.76;39071.19;5033932;28;20045;-64
2024/03/10 09:18:45;;;;;;;2.47;1.73;;;;;;;-145.63;26.72;39049.66;5027790;28;20029;-64
2024/03/10 09:21:36;;;;;;;2.53;1.73;;;;;;;-145.63;25.85;39055.53;5035469;28;20025;-64
2024/03/10 09:24:08;;;;;;;2.45;1.60;;;;;;;-145.63;25.67;39143.53;5015743;28;20026;-64
2024/03/10 09:26:42;;;;;;;4.00;2.03;;;;;;;-145.63;25.73;39145.50;5031926;28;20474;-65
2024/03/10 09:29:29;;;;;;;3.72;1.88;;;;;;;-145.63;25.95;39063.34;5035368;28;20025;-64
2024/03/10 09:35:42;;;;;;;2.78;1.88;;;;;;;-145.63;25.56;39063.34;5032008;28;20405;-64
2024/03/10 09:38:23;;;;;;;3.15;2.00;;;;;;;-145.63;26.44;39049.66;5044494;28;20106;-63
2024/03/10 09:40:55;;;;;;;3.30;2.08;;;;;;;-145.63;26.34;39055.53;5032423;28;20117;-62
2024/03/10 09:43:24;;;;;;;;;;;;;;;-145.63;26.81;39049.66;5035086;28;20079;-63
2024/03/10 09:46:13;;;;;;;2.72;1.73;;;;;;;-145.63;26.16;39041.84;5031590;28;19974;-63
2024/03/10 09:48:59;;;;;;;3.03;1.63;;;;;;;-145.63;26.96;39073.13;5032333;28;20116;-64
2024/03/10 09:51:58;;;;;;;2.03;1.70;;;;;;;-145.63;27.89;39088.78;5033769;28;20041;-63
2024/03/10 09:54:39;;;;;;;1.80;1.60;;;;;;;-145.63;27.66;39106.38;5033370;28;20561;-64
2024/03/10 09:57:20;;;;;;;2.75;1.95;;;;;;;-145.63;27.00;39073.13;5016110;28;20032;-64
2024/03/10 09:59:54;;;;;;;3.28;1.67;;;;;;;-145.63;27.81;39102.47;5031680;28;20112;-62
2024/03/10 10:02:25;;;;;;;;;;;;;;;-145.63;27.56;39071.19;5034789;28;20034;-63
2024/03/10 10:05:32;;;;;;;2.90;1.50;;;;;;;-145.63;28.37;39030.13;5031324;28;19939;-63
2024/03/10 10:08:20;;;;;;;4.85;1.75;;;;;;;-145.63;28.74;39069.22;5032856;28;20378;-63
2024/03/10 10:10:54;;;;;;;1.90;1.70;;;;;;;-145.63;28.05;39122.03;5032094;28;20379;-64
2024/03/10 10:13:27;;;;;;;1.90;1.50;;;;;;;-145.63;27.85;39106.38;5031718;28;20037;-63
2024/03/10 10:16:11;;;;;;;1.63;1.40;;;;;;;-145.63;27.92;39049.66;5032587;28;20033;-61
2024/03/10 10:19:01;;;;;;;1.55;1.30;;;;;;;-145.63;29.10;39028.16;5032381;28;20036;-63
2024/03/10 10:22:05;;;;;;;2.28;1.63;;;;;;;-145.63;29.40;39045.75;5032441;28;20048;-64
2024/03/10 10:25:13;;;;;;;4.03;1.60;;;;;;;-145.63;29.44;39053.59;5031431;28;20081;-62
2024/03/10 10:27:49;;;;;;;2.03;1.80;;;;;;;-145.63;28.75;39045.75;5030049;28;20394;-64
2024/03/10 10:30:33;;;;;;;2.65;1.80;;;;;;;-145.63;28.63;39088.78;5030442;28;20021;-62
2024/03/10 10:33:11;;;;;;;2.55;1.90;;;;;;;-145.63;28.71;39110.28;5031811;28;20021;-63
2024/03/10 10:35:52;;;;;;;2.05;1.45;;;;;;;-145.63;29.18;39051.63;5030496;28;20133;-65
2024/03/10 10:38:24;;;;;;;2.60;1.43;;;;;;;-145.63;28.37;38811.09;5030530;28;20033;-63
2024/03/10 10:40:56;;;;;;;3.42;1.80;;;;;;;-145.63;28.87;39071.19;5032171;28;20037;-63
2024/03/10 10:43:42;;;;;;;1.80;1.60;;;;;;;-145.63;29.10;39104.44;5032374;28;20034;-64
2024/03/10 10:46:20;;;;;;;2.80;1.67;;;;;;;-145.63;28.37;39030.13;5029673;28;20116;-64
2024/03/10 10:48:52;;;;;;;2.20;1.55;;;;;;;-145.63;28.24;39053.59;5031770;28;20029;-65
2024/03/10 10:51:50;;;;;;;2.33;1.30;;;;;;;-145.63;28.82;39079.00;5032680;28;20025;-64
2024/03/10 10:54:30;;;;;;;2.05;1.60;;;;;;;-145.63;29.02;39094.66;5032027;28;20025;-64
2024/03/10 10:57:27;;;;;;;2.20;1.70;;;;;;;-145.63;30.08;39131.81;5026034;28;20030;-65
2024/03/10 11:00:32;;;;;;;3.63;1.95;;;;;;;-145.63;30.08;39125.94;5031312;28;20124;-65
2024/03/10 11:03:17;;;;;;;4.68;2.40;;;;;;;-145.63;30.40;39110.28;5032223;28;20022;-64
2024/03/10 11:06:19;;;;;;;2.50;1.77;;;;;;;-145.63;29.53;39108.34;5029119;28;20504;-64
2024/03/10 11:08:49;;;;;;;2.88;2.42;;;;;;;-145.63;30.40;39147.44;5032281;28;20031;-62
2024/03/10 11:14:42;;;;;;;4.80;2.20;;;;;;;-145.63;30.10;39120.06;5030175;28;20030;-65
2024/03/10 11:17:23;;;;;;;3.08;2.00;;;;;;;-145.63;29.29;39110.28;5031347;28;20041;-62
2024/03/10 11:20:14;;;;;;;2.50;1.60;;;;;;;-145.63;28.60;39147.44;5032660;28;20045;-64
2024/03/10 11:22:54;;;;;;;3.67;1.50;;;;;;;-145.63;28.50;39108.34;5030799;28;20017;-63
2024/03/10 11:25:22;;;;;;;2.38;1.52;;;;;;;-145.63;29.33;39133.75;5030841;28;20033;-64
2024/03/10 11:27:59;;;;;;;2.42;1.50;;;;;;;-145.63;27.86;39108.34;5033051;28;20018;-63
2024/03/10 11:33:55;;;;;;;2.53;1.80;;;;;;;-145.63;28.18;39127.91;5033126;28;20025;-64
2024/03/10 11:36:25;;;;;;;2.42;1.75;;;;;;;-145.63;27.75;39135.72;5063275;28;20025;-63
2024/03/10 11:39:04;;;;;;;3.80;1.65;;;;;;;-145.63;28.81;39108.34;5032635;28;20068;-64
2024/03/10 11:41:44;;;;;;;2.15;1.95;;;;;;;-145.63;27.18;39133.75;5040443;28;20069;-66
2024/03/10 11:44:37;;;;;;;4.63;1.67;;;;;;;-145.63;27.77;39133.75;5027340;28;20072;-64
2024/03/10 11:47:24;;;;;;;1.90;1.77;;;;;;;-145.63;27.77;39143.53;5016413;28;20112;-65
2024/03/10 11:50:40;;;;;;;4.28;1.92;;;;;;;-145.63;27.85;39135.72;5039761;28;20087;-66
2024/03/10 11:53:09;;;;;;;2.17;1.40;;;;;;;-145.63;27.28;39122.03;5027603;28;20022;-63
2024/03/10 11:55:37;;;;;;;3.90;1.63;;;;;;;-145.63;28.72;39127.91;5035387;28;20128;-64
2024/03/10 11:58:24;;;;;;;3.25;1.90;;;;;;;-145.63;27.64;39168.97;5036117;28;20032;-64
2024/03/10 12:00:53;;;;;;;1.65;1.48;;;;;;;-145.63;27.62;39116.16;5033863;28;20038;-64
2024/03/10 12:03:21;;;;;;;2.20;1.48;;;;;;;-145.63;27.62;39149.41;5038090;28;20073;-65
2024/03/10 12:05:49;;;;;;;2.30;1.50;;;;;;;-145.63;27.81;39116.16;5034131;28;20029;-63
2024/03/10 12:08:30;;;;;;;3.13;1.40;;;;;;;-145.63;27.42;39120.06;5034099;28;20117;-64
2024/03/10 12:11:12;;;;;;;;;;;;;;;-145.63;27.60;39112.25;5036344;28;20033;-65
2024/03/10 12:13:56;;;;;;;3.13;1.70;;;;;;;-145.63;27.29;39123.97;5024395;28;19920;-65
2024/03/10 12:20:00;;;;;;;2.88;1.50;;;;;;;-145.63;29.26;39114.22;5016801;28;20112;-65
2024/03/10 12:22:35;;;;;;;2.20;1.50;;;;;;;-145.63;28.68;39151.38;5022503;28;20389;-64
2024/03/10 12:25:09;;;;;;;;;;;;;;;-145.63;29.08;39122.03;5037248;28;20088;-64
2024/03/10 12:30:28;;;;;;;2.88;1.58;;;;;;;-145.63;28.20;39129.84;5015458;28;20459;-63
2024/03/10 12:32:54;;;;;;;3.22;1.80;;;;;;;-145.63;29.12;39120.06;5033691;28;20033;-65
2024/03/10 12:35:26;;;;;;;2.17;1.60;;;;;;;-145.63;28.87;39163.09;5068247;28;20057;-65
2024/03/10 12:37:51;;;;;;;3.20;2.08;;;;;;;-145.63;29.08;39123.97;5034794;28;20068;-65
2024/03/10 12:40:17;;;;;;;3.70;1.67;;;;;;;-145.63;28.11;39129.84;5036601;28;20443;-64
2024/03/10 12:42:47;;;;;;;1.75;1.50;;;;;;;-145.63;28.58;39118.13;5036562;28;20029;-65
2024/03/10 12:45:15;;;;;;;2.35;1.30;;;;;;;-145.63;28.05;39129.84;5035889;28;20041;-64
2024/03/10 12:47:54;;;;;;;2.08;1.60;;;;;;;-145.63;28.17;39135.72;5035988;28;20034;-64
2024/03/10 12:50:26;;;;;;;3.17;1.73;;;;;;;-145.63;28.65;39137.69;5036021;28;20033;-64
2024/03/10 12:52:55;;;;;;;3.10;1.70;;;;;;;-145.63;28.65;39123.97;5035238;28;20087;-64
2024/03/10 12:55:30;;;;;;;3.70;1.83;;;;;;;-145.63;29.58;39096.59;5035873;28;20032;-65
2024/03/10 13:01:01;;;;;;;1.70;1.52;;;;;;;-145.63;29.64;39129.84;5036102;28;20040;-65
2024/03/10 13:03:31;;;;;;;1.55;1.45;;;;;;;-145.63;29.13;39118.13;5016220;28;20045;-66
2024/03/10 13:06:14;;;;;;;2.25;1.65;;;;;;;-145.63;29.10;39120.06;5033378;28;20033;-65
2024/03/10 13:08:45;;;;;;;3.95;1.40;;;;;;;-145.63;28.58;39102.47;5035877;28;20501;-65
2024/03/10 13:11:14;;;;;;;1.70;1.35;;;;;;;-145.63;28.98;39149.41;5035999;28;20028;-65
2024/03/10 13:14:05;;;;;;;2.10;1.30;;;;;;;-145.63;28.23;39114.22;5035508;28;20044;-64
2024/03/10 13:16:45;;;;;;;2.97;1.80;;;;;;;-145.63;28.54;39125.94;5036143;28;20053;-64
2024/03/10 13:19:32;;;;;;;2.83;1.25;;;;;;;-145.63;28.67;39100.50;5017150;28;20048;-64
2024/03/10 13:22:19;;;;;;;1.48;1.10;;;;;;;-145.63;27.36;39102.47;5021314;28;20039;-64
2024/03/10 13:24:59;;;;;;;1.83;1.20;;;;;;;-145.63;28.65;39145.50;5055685;28;20031;-65
2024/03/10 13:27:41;;;;;;;2.38;1.45;;;;;;;-145.63;28.43;39139.63;5016021;28;20042;-64
2024/03/10 13:30:11;;;;;;;2.80;1.60;;;;;;;-145.63;28.91;39120.06;5033842;28;20116;-63